Time;durP1;ratioP1;P1;durP2;ratioP2;P2;SDS_P1;SDS_P2;PMS_P1;PMS_P2;Temp;Humidity;BMP_temperature;BMP_pressure;BME280_temperature;BME280_humidity;BME280_pressure;Samples;Min_cycle;Max_cycle;Signal;HPM_P1;HPM_P2
2022/07/30 00:02:15;;;;;;;;;;;;;;;;;;5055730;28;1698;-69
2022/07/30 00:04:40;;;;;;;;;;;;;;;;;;5053642;28;1895;-69
2022/07/30 00:07:05;;;;;;;;;;;;;;;;;;5053290;28;1472;-69
2022/07/30 00:09:30;;;;;;;;;;;;;;;;;;5055667;28;1763;-68
2022/07/30 00:11:56;;;;;;;;;;;;;;;;;;5048081;28;1550;-68
2022/07/30 00:14:21;;;;;;;;;;;;;;;;;;5055540;28;1558;-69
2022/07/30 00:16:46;;;;;;;;;;;;;;;;;;5055526;28;1420;-68
2022/07/30 00:19:11;;;;;;;;;;;;;;;;;;5058474;28;1207;-68
2022/07/30 00:21:37;;;;;;;;;;;;;;;;;;5041388;28;1595;-68
2022/07/30 00:24:02;;;;;;;;;;;;;;;;;;5053934;28;1663;-68
2022/07/30 00:26:27;;;;;;;;;;;;;;;;;;5058201;28;1906;-68
2022/07/30 00:28:52;;;;;;;;;;;;;;;;;;5045853;28;1503;-68
2022/07/30 00:31:18;;;;;;;;;;;;;;;;;;5046120;28;1586;-68
2022/07/30 00:33:43;;;;;;;;;;;;;;;;;;5061524;28;1148;-67
2022/07/30 00:36:08;;;;;;;;;;;;;;;;;;5058367;28;1492;-67
2022/07/30 00:38:33;;;;;;;;;;;;;;;;;;5032128;28;1774;-68
2022/07/30 00:40:58;;;;;;;;;;;;;;;;;;5049013;28;1158;-67
2022/07/30 00:43:23;;;;;;;;;;;;;;;;;;5043276;28;1538;-67
2022/07/30 00:45:49;;;;;;;;;;;;;;;;;;5043617;28;1902;-67
2022/07/30 00:48:14;;;;;;;;;;;;;;;;;;5050559;28;1374;-67
2022/07/30 00:50:40;;;;;;;;;;;;;;;;;;5054237;28;1276;-67
2022/07/30 00:53:06;;;;;;;;;;;;;;;;;;5055997;28;1481;-67
2022/07/30 00:55:31;;;;;;;;;;;;;;;;;;5051719;28;1124;-67
2022/07/30 00:57:56;;;;;;;;;;;;;;;;;;5039784;28;1276;-68
2022/07/30 01:00:22;;;;;;;;;;;;;;;;;;5042509;28;1433;-67
2022/07/30 01:02:47;;;;;;;;;;;;;;;;;;5058718;28;1546;-67
2022/07/30 01:05:12;;;;;;;;;;;;;;;;;;5054879;28;1906;-69
2022/07/30 01:07:38;;;;;;;;;;;;;;;;;;5047729;28;1597;-68
2022/07/30 01:10:04;;;;;;;;;;;;;;;;;;5051819;28;1338;-69
2022/07/30 01:12:30;;;;;;;;;;;;;;;;;;5059618;28;1492;-68
2022/07/30 01:14:57;;;;;;;;;;;;;;;;;;5042370;28;1531;-68
2022/07/30 01:17:22;;;;;;;;;;;;;;;;;;5051026;28;1734;-69
2022/07/30 01:19:51;;;;;;;;;;;;;;;;;;5057290;28;1221;-69
2022/07/30 01:22:25;;;;;;;;;;;;;;;;;;5046989;28;1523;-69
2022/07/30 01:25:04;;;;;;;;;;;;;;;;;;5050895;28;1882;-69
2022/07/30 01:27:31;;;;;;;;;;;;;;;;;;5059650;28;1291;-69
2022/07/30 01:29:57;;;;;;;;;;;;;;;;;;5052553;28;1746;-69
2022/07/30 01:32:24;;;;;;;;;;;;;;;;;;5054148;28;1781;-69
2022/07/30 01:34:50;;;;;;;;;;;;;;;;;;5040652;28;1319;-69
2022/07/30 01:37:16;;;;;;;;;;;;;;;;;;5054122;28;1333;-69
2022/07/30 01:39:42;;;;;;;;;;;;;;;;;;5056197;28;1538;-69
2022/07/30 01:42:08;;;;;;;;;;;;;;;;;;5048646;28;1497;-69
2022/07/30 01:44:33;;;;;;;;;;;;;;;;;;5056182;28;1901;-69
2022/07/30 01:47:00;;;;;;;;;;;;;;;;;;5052818;28;1682;-68
2022/07/30 01:49:26;;;;;;;;;;;;;;;;;;5058880;28;1366;-67
2022/07/30 01:51:52;;;;;;;;;;;;;;;;;;5059669;28;958;-68
2022/07/30 01:54:18;;;;;;;;;;;;;;;;;;5064849;28;870;-68
2022/07/30 01:56:44;;;;;;;;;;;;;;;;;;5062533;28;1394;-68
2022/07/30 01:59:11;;;;;;;;;;;;;;;;;;5054979;28;1477;-68
2022/07/30 02:01:36;;;;;;;;;;;;;;;;;;5056048;28;1357;-68
2022/07/30 02:04:02;;;;;;;;;;;;;;;;;;5063176;28;1128;-68
2022/07/30 02:06:38;;;;;;;;;;;;;;;;;;5053033;28;1890;-67
2022/07/30 02:09:04;;;;;;;;;;;;;;;;;;5064139;28;1342;-68
2022/07/30 02:14:23;;;;;;;;;;;;;;;;;;5050754;28;1199;-66
2022/07/30 02:16:52;;;;;;;;;;;;;;;;;;5055002;28;1403;-67
2022/07/30 02:19:18;;;;;;;;;;;;;;;;;;5029849;28;1640;-68
2022/07/30 02:21:45;;;;;;;;;;;;;;;;;;5057942;28;1627;-68
2022/07/30 02:24:13;;;;;;;;;;;;;;;;;;5054258;28;1174;-67
2022/07/30 02:26:39;;;;;;;;;;;;;;;;;;5048247;28;1890;-69
2022/07/30 02:29:05;;;;;;;;;;;;;;;;;;5056925;28;1282;-69
2022/07/30 02:31:31;;;;;;;;;;;;;;;;;;5048100;28;1481;-69
2022/07/30 02:33:59;;;;;;;;;;;;;;;;;;5055876;28;1179;-69
2022/07/30 02:36:25;;;;;;;;;;;;;;;;;;5051786;28;1369;-68
2022/07/30 02:38:51;;;;;;;;;;;;;;;;;;5058438;28;1155;-69
2022/07/30 02:41:17;;;;;;;;;;;;;;;;;;5049190;28;1471;-69
2022/07/30 02:43:44;;;;;;;;;;;;;;;;;;5043248;28;1550;-69
2022/07/30 02:46:11;;;;;;;;;;;;;;;;;;5052044;28;1972;-68
2022/07/30 02:48:37;;;;;;;;;;;;;;;;;;5054772;28;1504;-70
2022/07/30 02:51:03;;;;;;;;;;;;;;;;;;5057224;28;1420;-69
2022/07/30 02:53:29;;;;;;;;;;;;;;;;;;5062617;28;1207;-69
2022/07/30 02:55:55;;;;;;;;;;;;;;;;;;5063149;28;862;-69
2022/07/30 02:58:22;;;;;;;;;;;;;;;;;;5062614;28;1184;-68
2022/07/30 03:00:47;;;;;;;;;;;;;;;;;;5052658;28;1766;-68
2022/07/30 03:03:13;;;;;;;;;;;;;;;;;;5056546;28;1211;-69
2022/07/30 03:05:39;;;;;;;;;;;;;;;;;;5052950;28;1901;-69
2022/07/30 03:08:04;;;;;;;;;;;;;;;;;;5051320;28;1417;-69
2022/07/30 03:10:30;;;;;;;;;;;;;;;;;;5059350;28;1678;-69
2022/07/30 03:12:57;;;;;;;;;;;;;;;;;;5063485;28;1206;-70
2022/07/30 03:15:22;;;;;;;;;;;;;;;;;;5060357;28;1635;-71
2022/07/30 03:17:49;;;;;;;;;;;;;;;;;;5061298;28;1492;-71
2022/07/30 03:20:16;;;;;;;;;;;;;;;;;;5058764;28;1337;-71
2022/07/30 03:22:42;;;;;;;;;;;;;;;;;;5057196;28;1262;-71
2022/07/30 03:25:09;;;;;;;;;;;;;;;;;;5061909;28;1886;-71
2022/07/30 03:27:36;;;;;;;;;;;;;;;;;;5056238;28;1828;-71
2022/07/30 03:30:02;;;;;;;;;;;;;;;;;;5061378;28;1404;-70
2022/07/30 03:32:28;;;;;;;;;;;;;;;;;;5060761;28;1194;-71
2022/07/30 03:34:54;;;;;;;;;;;;;;;;;;5060887;28;1222;-71
2022/07/30 03:37:20;;;;;;;;;;;;;;;;;;5050304;28;1587;-70
2022/07/30 03:39:46;;;;;;;;;;;;;;;;;;5057484;28;1093;-70
2022/07/30 03:42:11;;;;;;;;;;;;;;;;;;5055987;28;1381;-70
2022/07/30 03:44:37;;;;;;;;;;;;;;;;;;5061597;28;1902;-70
2022/07/30 03:47:03;;;;;;;;;;;;;;;;;;5037735;28;1361;-70
2022/07/30 03:49:29;;;;;;;;;;;;;;;;;;5062560;28;1147;-71
2022/07/30 03:51:55;;;;;;;;;;;;;;;;;;5057443;28;1495;-70
2022/07/30 03:54:20;;;;;;;;;;;;;;;;;;5061062;28;1132;-70
2022/07/30 03:56:45;;;;;;;;;;;;;;;;;;5060936;28;1200;-71
2022/07/30 03:59:12;;;;;;;;;;;;;;;;;;5062402;28;874;-71
2022/07/30 04:01:37;;;;;;;;;;;;;;;;;;5053903;28;1539;-70
2022/07/30 04:04:06;;;;;;;;;;;;;;;;;;5055229;28;1357;-70
2022/07/30 04:06:32;;;;;;;;;;;;;;;;;;5056292;28;1893;-70
2022/07/30 04:08:57;;;;;;;;;;;;;;;;;;5054019;28;1322;-69
2022/07/30 04:11:23;;;;;;;;;;;;;;;;;;5060516;28;1164;-70
2022/07/30 04:13:48;;;;;;;;;;;;;;;;;;5054121;28;1626;-70
2022/07/30 04:16:17;;;;;;;;;;;;;;;;;;5053266;28;1369;-69
2022/07/30 04:18:44;;;;;;;;;;;;;;;;;;5062232;28;1148;-70
2022/07/30 04:21:10;;;;;;;;;;;;;;;;;;5056567;28;1463;-69
2022/07/30 04:23:38;;;;;;;;;;;;;;;;;;5049683;28;1746;-70
2022/07/30 04:26:03;;;;;;;;;;;;;;;;;;5054579;28;1945;-70
2022/07/30 04:28:28;;;;;;;;;;;;;;;;;;5059996;28;1132;-69
2022/07/30 04:30:53;;;;;;;;;;;;;;;;;;5047467;28;1499;-69
2022/07/30 04:33:19;;;;;;;;;;;;;;;;;;5054855;28;1076;-69
2022/07/30 04:35:44;;;;;;;;;;;;;;;;;;5061121;28;1159;-69
2022/07/30 04:38:09;;;;;;;;;;;;;;;;;;5047288;28;1717;-69
2022/07/30 04:40:34;;;;;;;;;;;;;;;;;;5056112;28;1400;-69
2022/07/30 04:43:00;;;;;;;;;;;;;;;;;;5045625;28;1489;-69
2022/07/30 04:45:25;;;;;;;;;;;;;;;;;;5049690;28;1963;-69
2022/07/30 04:47:52;;;;;;;;;;;;;;;;;;5056912;28;1338;-71
2022/07/30 04:50:20;;;;;;;;;;;;;;;;;;5061596;28;862;-70
2022/07/30 04:52:46;;;;;;;;;;;;;;;;;;5055168;28;1531;-69
2022/07/30 04:55:12;;;;;;;;;;;;;;;;;;5061366;28;1152;-69
2022/07/30 04:57:38;;;;;;;;;;;;;;;;;;5043484;28;1615;-69
2022/07/30 05:00:05;;;;;;;;;;;;;;;;;;5055576;28;1350;-69
2022/07/30 05:02:31;;;;;;;;;;;;;;;;;;5055741;28;1505;-69
2022/07/30 05:04:57;;;;;;;;;;;;;;;;;;5061015;28;1965;-68
2022/07/30 05:07:24;;;;;;;;;;;;;;;;;;5044295;28;1487;-69
2022/07/30 05:09:49;;;;;;;;;;;;;;;;;;5056688;28;1270;-69
2022/07/30 05:12:15;;;;;;;;;;;;;;;;;;5061400;28;921;-68
2022/07/30 05:14:40;;;;;;;;;;;;;;;;;;5045226;28;1501;-68
2022/07/30 05:17:05;;;;;;;;;;;;;;;;;;5050410;28;1672;-68
2022/07/30 05:19:31;;;;;;;;;;;;;;;;;;5052602;28;1385;-70
2022/07/30 05:21:56;;;;;;;;;;;;;;;;;;5052915;28;1294;-71
2022/07/30 05:24:21;;;;;;;;;;;;;;;;;;5061500;28;1080;-71
2022/07/30 05:26:46;;;;;;;;;;;;;;;;;;5060732;28;1961;-70
2022/07/30 05:29:12;;;;;;;;;;;;;;;;;;5062795;28;1647;-70
2022/07/30 05:31:37;;;;;;;;;;;;;;;;;;5056135;28;1504;-70
2022/07/30 05:34:02;;;;;;;;;;;;;;;;;;5063137;28;1144;-71
2022/07/30 05:36:27;;;;;;;;;;;;;;;;;;5056895;28;1483;-72
2022/07/30 05:38:52;;;;;;;;;;;;;;;;;;5052949;28;1465;-71
2022/07/30 05:41:17;;;;;;;;;;;;;;;;;;5064919;28;1139;-72
2022/07/30 05:43:43;;;;;;;;;;;;;;;;;;5065074;28;833;-72
2022/07/30 05:46:08;;;;;;;;;;;;;;;;;;5055107;28;1897;-73
2022/07/30 05:48:34;;;;;;;;;;;;;;;;;;5063178;28;1220;-73
2022/07/30 05:51:03;;;;;;;;;;;;;;;;;;5056189;28;1444;-69
2022/07/30 05:53:28;;;;;;;;;;;;;;;;;;5059431;28;1715;-69
2022/07/30 05:55:53;;;;;;;;;;;;;;;;;;5056936;28;1440;-70
2022/07/30 05:58:18;;;;;;;;;;;;;;;;;;5063816;28;1177;-69
2022/07/30 06:00:44;;;;;;;;;;;;;;;;;;5048324;28;1493;-70
2022/07/30 06:03:09;;;;;;;;;;;;;;;;;;5062187;28;1089;-70
2022/07/30 06:05:34;;;;;;;;;;;;;;;;;;5054252;28;1963;-70
2022/07/30 06:07:59;;;;;;;;;;;;;;;;;;5047627;28;1697;-69
2022/07/30 06:10:25;;;;;;;;;;;;;;;;;;5063661;28;1199;-68
2022/07/30 06:12:50;;;;;;;;;;;;;;;;;;5057323;28;1623;-70
2022/07/30 06:15:15;;;;;;;;;;;;;;;;;;5051698;28;1361;-71
2022/07/30 06:17:44;;;;;;;;;;;;;;;;;;5050575;28;1318;-70
2022/07/30 06:20:10;;;;;;;;;;;;;;;;;;5055740;28;1326;-70
2022/07/30 06:22:35;;;;;;;;;;;;;;;;;;5050709;28;1538;-69
2022/07/30 06:25:00;;;;;;;;;;;;;;;;;;5050900;28;1906;-70
2022/07/30 06:27:26;;;;;;;;;;;;;;;;;;5061599;28;1658;-69
2022/07/30 06:29:51;;;;;;;;;;;;;;;;;;5064437;28;1159;-70
2022/07/30 06:32:18;;;;;;;;;;;;;;;;;;5053599;28;1737;-70
2022/07/30 06:34:43;;;;;;;;;;;;;;;;;;5058801;28;1148;-70
2022/07/30 06:37:08;;;;;;;;;;;;;;;;;;5057911;28;1679;-70
2022/07/30 06:39:33;;;;;;;;;;;;;;;;;;5048629;28;1314;-70
2022/07/30 06:41:59;;;;;;;;;;;;;;;;;;5063840;28;1163;-70
2022/07/30 06:44:24;;;;;;;;;;;;;;;;;;5064000;28;748;-70
2022/07/30 06:46:49;;;;;;;;;;;;;;;;;;5056004;28;1964;-72
2022/07/30 06:49:14;;;;;;;;;;;;;;;;;;5056587;28;1262;-72
2022/07/30 06:51:39;;;;;;;;;;;;;;;;;;5062105;28;1139;-69
2022/07/30 06:54:04;;;;;;;;;;;;;;;;;;5053183;28;1691;-71
2022/07/30 06:56:30;;;;;;;;;;;;;;;;;;5062745;28;1223;-70
2022/07/30 06:58:55;;;;;;;;;;;;;;;;;;5067656;28;1419;-69
2022/07/30 07:01:22;;;;;;;;;;;;;;;;;;5060711;28;1442;-70
2022/07/30 07:03:47;;;;;;;;;;;;;;;;;;5062984;28;1162;-68
2022/07/30 07:06:12;;;;;;;;;;;;;;;;;;5069800;28;1909;-70
2022/07/30 07:08:37;;;;;;;;;;;;;;;;;;5059080;28;1678;-69
2022/07/30 07:11:03;;;;;;;;;;;;;;;;;;5055912;28;1294;-69
2022/07/30 07:13:28;;;;;;;;;;;;;;;;;;5063498;28;1088;-70
2022/07/30 07:15:53;;;;;;;;;;;;;;;;;;5056358;28;1635;-71
2022/07/30 07:18:18;;;;;;;;;;;;;;;;;;5066320;28;1196;-71
2022/07/30 07:20:45;;;;;;;;;;;;;;;;;;5062475;28;1400;-72
2022/07/30 07:23:10;;;;;;;;;;;;;;;;;;5047450;28;1381;-70
2022/07/30 07:25:35;;;;;;;;;;;;;;;;;;5062924;28;1902;-71
2022/07/30 07:28:01;;;;;;;;;;;;;;;;;;5060290;28;1267;-71
2022/07/30 07:30:26;;;;;;;;;;;;;;;;;;5057640;28;1745;-71
2022/07/30 07:32:51;;;;;;;;;;;;;;;;;;5059945;28;1218;-71
2022/07/30 07:35:16;;;;;;;;;;;;;;;;;;5063040;28;1294;-71
2022/07/30 07:37:41;;;;;;;;;;;;;;;;;;5056162;28;1405;-71
2022/07/30 07:40:07;;;;;;;;;;;;;;;;;;5050133;28;1853;-71
2022/07/30 07:42:32;;;;;;;;;;;;;;;;;;5056538;28;1527;-71
2022/07/30 07:44:57;;;;;;;;;;;;;;;;;;5059166;28;1959;-70
2022/07/30 07:47:22;;;;;;;;;;;;;;;;;;5055190;28;1695;-70
2022/07/30 07:49:48;;;;;;;;;;;;;;;;;;5061611;28;1196;-70
2022/07/30 07:52:13;;;;;;;;;;;;;;;;;;5057236;28;1622;-70
2022/07/30 07:54:38;;;;;;;;;;;;;;;;;;5053766;28;1583;-71
2022/07/30 07:57:06;;;;;;;;;;;;;;;;;;5060532;28;1263;-70
2022/07/30 07:59:31;;;;;;;;;;;;;;;;;;5059524;28;1551;-72
2022/07/30 08:01:57;;;;;;;;;;;;;;;;;;5063196;28;1410;-72
2022/07/30 08:04:22;;;;;;;;;;;;;;;;;;5063142;28;1362;-71
2022/07/30 08:06:47;;;;;;;;;;;;;;;;;;5053123;28;1964;-75
2022/07/30 08:09:12;;;;;;;;;;;;;;;;;;5066753;28;1639;-72
2022/07/30 08:11:37;;;;;;;;;;;;;;;;;;5069996;28;1326;-73
2022/07/30 08:14:02;;;;;;;;;;;;;;;;;;5062558;28;1665;-74
2022/07/30 08:16:28;;;;;;;;;;;;;;;;;;5067079;28;1371;-73
2022/07/30 08:18:53;;;;;;;;;;;;;;;;;;5069472;28;1399;-73
2022/07/30 08:21:18;;;;;;;;;;;;;;;;;;5059095;28;1307;-73
2022/07/30 08:23:43;;;;;;;;;;;;;;;;;;5075221;28;1222;-73
2022/07/30 08:26:08;;;;;;;;;;;;;;;;;;5062195;28;1955;-71
2022/07/30 08:28:37;;;;;;;;;;;;;;;;;;5065638;28;1707;-72
2022/07/30 08:31:02;;;;;;;;;;;;;;;;;;5049203;28;1242;-73
2022/07/30 08:33:27;;;;;;;;;;;;;;;;;;5052622;28;1503;-73
2022/07/30 08:35:53;;;;;;;;;;;;;;;;;;5047508;28;1337;-73
2022/07/30 08:38:18;;;;;;;;;;;;;;;;;;5053492;28;1421;-73
2022/07/30 08:40:43;;;;;;;;;;;;;;;;;;5047601;28;1243;-73
2022/07/30 08:43:08;;;;;;;;;;;;;;;;;;5049650;28;1432;-73
2022/07/30 08:45:34;;;;;;;;;;;;;;;;;;5052899;28;1902;-73
2022/07/30 08:48:00;;;;;;;;;;;;;;;;;;5064941;28;1573;-73
2022/07/30 08:50:26;;;;;;;;;;;;;;;;;;5064468;28;1230;-73
2022/07/30 08:52:54;;;;;;;;;;;;;;;;;;5062321;28;1338;-73
2022/07/30 08:55:20;;;;;;;;;;;;;;;;;;5055571;28;1395;-73
2022/07/30 08:57:45;;;;;;;;;;;;;;;;;;5060988;28;1423;-72
2022/07/30 09:00:11;;;;;;;;;;;;;;;;;;5057493;28;1314;-73
2022/07/30 09:02:36;;;;;;;;;;;;;;;;;;5056700;28;1373;-72
2022/07/30 09:05:01;;;;;;;;;;;;;;;;;;5064109;28;1902;-74
2022/07/30 09:07:26;;;;;;;;;;;;;;;;;;5063263;28;1658;-73
2022/07/30 09:09:52;;;;;;;;;;;;;;;;;;5056548;28;1243;-73
2022/07/30 09:12:35;;;;;;;;;;;;;;;;;;5063224;28;1349;-72
2022/07/30 09:15:05;;;;;;;;;;;;;;;;;;5054259;28;1285;-74
2022/07/30 09:17:50;;;;;;;;;;;;;;;;;;5047874;28;1531;-74
2022/07/30 09:20:16;;;;;;;;;;;;;;;;;;5050494;28;1281;-74
2022/07/30 09:22:42;;;;;;;;;;;;;;;;;;5047928;28;1448;-74
2022/07/30 09:25:07;;;;;;;;;;;;;;;;;;5049330;28;1906;-74
2022/07/30 09:27:45;;;;;;;;;;;;;;;;;;5048638;28;1275;-75
2022/07/30 09:30:11;;;;;;;;;;;;;;;;;;5048729;28;1352;-74
2022/07/30 09:32:57;;;;;;;;;;;;;;;;;;5054309;28;1456;-74
2022/07/30 09:35:22;;;;;;;;;;;;;;;;;;5048292;28;1327;-75
2022/07/30 09:37:57;;;;;;;;;;;;;;;;;;5050707;28;1708;-75
2022/07/30 09:40:22;;;;;;;;;;;;;;;;;;5048466;28;1844;-75
2022/07/30 09:42:47;;;;;;;;;;;;;;;;;;5054921;28;1334;-74
2022/07/30 09:45:13;;;;;;;;;;;;;;;;;;5051583;28;1974;-75
2022/07/30 09:47:43;;;;;;;;;;;;;;;;;;5049255;28;1430;-75
2022/07/30 09:50:12;;;;;;;;;;;;;;;;;;5048939;28;1150;-74
2022/07/30 09:52:39;;;;;;;;;;;;;;;;;;5048152;28;1472;-74
2022/07/30 09:55:04;;;;;;;;;;;;;;;;;;5048475;28;1239;-74
2022/07/30 09:57:30;;;;;;;;;;;;;;;;;;5033461;28;1347;-73
2022/07/30 09:59:56;;;;;;;;;;;;;;;;;;5046534;28;1255;-73
2022/07/30 10:02:28;;;;;;;;;;;;;;;;;;5047753;28;1492;-73
2022/07/30 10:04:53;;;;;;;;;;;;;;;;;;5049713;28;1902;-73
2022/07/30 10:07:20;;;;;;;;;;;;;;;;;;5045931;28;1523;-73
2022/07/30 10:09:46;;;;;;;;;;;;;;;;;;5053955;28;1231;-73
2022/07/30 10:12:13;;;;;;;;;;;;;;;;;;5049075;28;1353;-73
2022/07/30 10:14:40;;;;;;;;;;;;;;;;;;5049633;28;1259;-73
2022/07/30 10:17:05;;;;;;;;;;;;;;;;;;5051515;28;1374;-73
2022/07/30 10:19:31;;;;;;;;;;;;;;;;;;5050601;28;1421;-73
2022/07/30 10:21:56;;;;;;;;;;;;;;;;;;5052094;28;1296;-74
2022/07/30 10:24:22;;;;;;;;;;;;;;;;;;5053707;28;1270;-75
2022/07/30 10:26:48;;;;;;;;;;;;;;;;;;5052831;28;1898;-75
2022/07/30 10:29:14;;;;;;;;;;;;;;;;;;5050363;28;1174;-75
2022/07/30 10:31:39;;;;;;;;;;;;;;;;;;5049094;28;1496;-75
2022/07/30 10:34:05;;;;;;;;;;;;;;;;;;5056738;28;1637;-75
2022/07/30 10:36:31;;;;;;;;;;;;;;;;;;5049989;28;1636;-75
2022/07/30 10:38:57;;;;;;;;;;;;;;;;;;5050852;28;1714;-75
2022/07/30 10:41:22;;;;;;;;;;;;;;;;;;5048494;28;1226;-75
2022/07/30 10:44:06;;;;;;;;;;;;;;;;;;5054538;28;1943;-75
2022/07/30 10:46:38;;;;;;;;;;;;;;;;;;5047806;28;1898;-75
2022/07/30 10:49:07;;;;;;;;;;;;;;;;;;5061521;28;1484;-75
2022/07/30 10:52:01;;;;;;;;;;;;;;;;;;5047906;28;1495;-75
2022/07/30 10:54:33;;;;;;;;;;;;;;;;;;5044960;28;1333;-75
2022/07/30 10:57:18;;;;;;;;;;;;;;;;;;5052286;28;1615;-74
2022/07/30 10:59:57;;;;;;;;;;;;;;;;;;5051254;28;1979;-76
2022/07/30 11:02:23;;;;;;;;;;;;;;;;;;5054273;28;1292;-74
2022/07/30 11:04:48;;;;;;;;;;;;;;;;;;5057753;28;1283;-74
2022/07/30 11:07:22;;;;;;;;;;;;;;;;;;5043821;28;1898;-73
2022/07/30 11:09:48;;;;;;;;;;;;;;;;;;5058239;28;1823;-74
2022/07/30 11:12:14;;;;;;;;;;;;;;;;;;5042139;28;1264;-73
2022/07/30 11:14:45;;;;;;;;;;;;;;;;;;5042881;28;1639;-74
2022/07/30 11:17:11;;;;;;;;;;;;;;;;;;5045196;28;1707;-74
2022/07/30 11:19:56;;;;;;;;;;;;;;;;;;5041620;28;1849;-75
2022/07/30 11:22:27;;;;;;;;;;;;;;;;;;5044589;28;1919;-74
2022/07/30 11:24:52;;;;;;;;;;;;;;;;;;5042319;28;1626;-74
2022/07/30 11:27:36;;;;;;;;;;;;;;;;;;5039456;28;1898;-74
2022/07/30 11:30:02;;;;;;;;;;;;;;;;;;5052829;28;1542;-72
2022/07/30 11:32:31;;;;;;;;;;;;;;;;;;5043647;28;1508;-73
2022/07/30 11:35:15;;;;;;;;;;;;;;;;;;5049055;28;1716;-73
2022/07/30 11:37:57;;;;;;;;;;;;;;;;;;5040332;28;1817;-77
2022/07/30 11:40:24;;;;;;;;;;;;;;;;;;5041026;28;1585;-75
2022/07/30 11:42:49;;;;;;;;;;;;;;;;;;5045978;28;1452;-76
2022/07/30 11:45:14;;;;;;;;;;;;;;;;;;5031318;28;1960;-76
2022/07/30 11:47:47;;;;;;;;;;;;;;;;;;5039351;28;1653;-74
2022/07/30 11:50:20;;;;;;;;;;;;;;;;;;5045313;28;1951;-75
2022/07/30 11:52:49;;;;;;;;;;;;;;;;;;5040466;28;1704;-75
2022/07/30 11:55:21;;;;;;;;;;;;;;;;;;5045780;28;1785;-74
2022/07/30 11:57:46;;;;;;;;;;;;;;;;;;5050931;28;1437;-75
2022/07/30 12:00:11;;;;;;;;;;;;;;;;;;5039980;28;1738;-78
2022/07/30 12:02:37;;;;;;;;;;;;;;;;;;5040812;28;1605;-76
2022/07/30 12:05:03;;;;;;;;;;;;;;;;;;5043109;28;1979;-77
2022/07/30 12:07:28;;;;;;;;;;;;;;;;;;5040166;28;1888;-76
2022/07/30 12:10:10;;;;;;;;;;;;;;;;;;5032006;28;1778;-75
2022/07/30 12:12:35;;;;;;;;;;;;;;;;;;5044434;28;1758;-75
2022/07/30 12:15:00;;;;;;;;;;;;;;;;;;5040186;28;1584;-76
2022/07/30 12:17:44;;;;;;;;;;;;;;;;;;5045878;28;1706;-75
2022/07/30 12:20:16;;;;;;;;;;;;;;;;;;5040177;28;1767;-75
2022/07/30 12:22:42;;;;;;;;;;;;;;;;;;5040900;28;1523;-75
2022/07/30 12:25:07;;;;;;;;;;;;;;;;;;5054948;28;1890;-75
2022/07/30 12:27:32;;;;;;;;;;;;;;;;;;5052076;28;1642;-78
2022/07/30 12:29:58;;;;;;;;;;;;;;;;;;5054717;28;1329;-74
2022/07/30 12:32:23;;;;;;;;;;;;;;;;;;5061895;28;1786;-75
2022/07/30 12:34:55;;;;;;;;;;;;;;;;;;5059256;28;1638;-75
2022/07/30 12:37:20;;;;;;;;;;;;;;;;;;5044880;28;1571;-75
2022/07/30 12:39:45;;;;;;;;;;;;;;;;;;5041772;28;1574;-75
2022/07/30 12:42:17;;;;;;;;;;;;;;;;;;5024758;28;1464;-75
2022/07/30 12:44:43;;;;;;;;;;;;;;;;;;5042255;28;830;-74
2022/07/30 12:47:19;;;;;;;;;;;;;;;;;;5051918;28;1894;-75
2022/07/30 12:49:44;;;;;;;;;;;;;;;;;;5060899;28;1222;-75
2022/07/30 12:52:18;;;;;;;;;;;;;;;;;;5050940;28;1353;-75
2022/07/30 12:54:43;;;;;;;;;;;;;;;;;;5057362;28;1220;-75
2022/07/30 12:57:08;;;;;;;;;;;;;;;;;;5060624;28;1334;-75
2022/07/30 12:59:34;;;;;;;;;;;;;;;;;;5061646;28;950;-75
2022/07/30 13:01:59;;;;;;;;;;;;;;;;;;5059106;28;1477;-73
2022/07/30 13:04:25;;;;;;;;;;;;;;;;;;5056119;28;1357;-75
2022/07/30 13:07:10;;;;;;;;;;;;;;;;;;5047422;28;1959;-73
2022/07/30 13:09:36;;;;;;;;;;;;;;;;;;5041369;28;890;-70
2022/07/30 13:12:01;;;;;;;;;;;;;;;;;;5041730;28;827;-73
2022/07/30 13:14:26;;;;;;;;;;;;;;;;;;5041103;28;1010;-72
2022/07/30 13:16:52;;;;;;;;;;;;;;;;;;5040622;28;1189;-72
2022/07/30 13:19:17;;;;;;;;;;;;;;;;;;5047395;28;1473;-72
2022/07/30 13:21:42;;;;;;;;;;;;;;;;;;5053402;28;1189;-72
2022/07/30 13:24:09;;;;;;;;;;;;;;;;;;5059910;28;1140;-72
2022/07/30 13:26:35;;;;;;;;;;;;;;;;;;5054517;28;1890;-72
2022/07/30 13:29:00;;;;;;;;;;;;;;;;;;5059088;28;1140;-72
2022/07/30 13:31:25;;;;;;;;;;;;;;;;;;5060937;28;1052;-73
2022/07/30 13:33:51;;;;;;;;;;;;;;;;;;5059158;28;1459;-72
2022/07/30 13:36:17;;;;;;;;;;;;;;;;;;5055543;28;1600;-73
2022/07/30 13:38:42;;;;;;;;;;;;;;;;;;5059552;28;1148;-73
2022/07/30 13:41:08;;;;;;;;;;;;;;;;;;5059907;28;798;-70
2022/07/30 13:43:33;;;;;;;;;;;;;;;;;;5053343;28;1469;-73
2022/07/30 13:45:59;;;;;;;;;;;;;;;;;;5053399;28;1905;-73
2022/07/30 13:48:24;;;;;;;;;;;;;;;;;;5046383;28;1432;-73
2022/07/30 13:50:49;;;;;;;;;;;;;;;;;;5056592;28;1276;-73
2022/07/30 13:53:14;;;;;;;;;;;;;;;;;;5054108;28;1622;-72
2022/07/30 13:55:41;;;;;;;;;;;;;;;;;;5047980;28;1215;-72
2022/07/30 13:58:06;;;;;;;;;;;;;;;;;;5050032;28;1259;-72
2022/07/30 14:00:32;;;;;;;;;;;;;;;;;;5055890;28;1246;-71
2022/07/30 14:02:58;;;;;;;;;;;;;;;;;;5050842;28;1343;-71
2022/07/30 14:05:24;;;;;;;;;;;;;;;;;;5049512;28;1968;-71
2022/07/30 14:07:49;;;;;;;;;;;;;;;;;;5030767;28;1621;-72
2022/07/30 14:10:14;;;;;;;;;;;;;;;;;;5049700;28;1247;-71
2022/07/30 14:12:39;;;;;;;;;;;;;;;;;;5048797;28;1216;-71
2022/07/30 14:15:06;;;;;;;;;;;;;;;;;;5048460;28;1232;-73
2022/07/30 14:17:31;;;;;;;;;;;;;;;;;;5053092;28;1258;-71
2022/07/30 14:19:56;;;;;;;;;;;;;;;;;;5054970;28;1333;-71
2022/07/30 14:22:22;;;;;;;;;;;;;;;;;;5053299;28;1264;-71
2022/07/30 14:24:47;;;;;;;;;;;;;;;;;;5054886;28;1789;-70
2022/07/30 14:27:12;;;;;;;;;;;;;;;;;;5057719;28;1885;-71
2022/07/30 14:29:38;;;;;;;;;;;;;;;;;;5057486;28;1443;-72
2022/07/30 14:32:03;;;;;;;;;;;;;;;;;;5058333;28;1401;-71
2022/07/30 14:34:28;;;;;;;;;;;;;;;;;;5048493;28;1527;-70
2022/07/30 14:36:53;;;;;;;;;;;;;;;;;;5060209;28;1342;-72
2022/07/30 14:39:19;;;;;;;;;;;;;;;;;;5062656;28;1306;-70
2022/07/30 14:41:45;;;;;;;;;;;;;;;;;;5058528;28;1328;-70
2022/07/30 14:44:11;;;;;;;;;;;;;;;;;;5060405;28;1144;-71
2022/07/30 14:46:36;;;;;;;;;;;;;;;;;;5044612;28;1971;-70
2022/07/30 14:49:02;;;;;;;;;;;;;;;;;;5044086;28;1183;-71
2022/07/30 14:51:27;;;;;;;;;;;;;;;;;;5049867;28;1468;-70
2022/07/30 14:53:52;;;;;;;;;;;;;;;;;;5043224;28;1231;-70
2022/07/30 14:56:18;;;;;;;;;;;;;;;;;;5042994;28;1394;-71
2022/07/30 14:58:43;;;;;;;;;;;;;;;;;;5057064;28;1736;-70
2022/07/30 15:01:09;;;;;;;;;;;;;;;;;;5042640;28;1140;-70
2022/07/30 15:03:34;;;;;;;;;;;;;;;;;;5045035;28;1373;-70
2022/07/30 15:06:00;;;;;;;;;;;;;;;;;;5053767;28;1890;-70
2022/07/30 15:08:25;;;;;;;;;;;;;;;;;;5054932;28;1294;-70
2022/07/30 15:10:50;;;;;;;;;;;;;;;;;;5062187;28;1415;-70
2022/07/30 15:13:15;;;;;;;;;;;;;;;;;;5041597;28;1324;-70
2022/07/30 15:15:41;;;;;;;;;;;;;;;;;;5063134;28;1440;-71
2022/07/30 15:18:06;;;;;;;;;;;;;;;;;;5057610;28;1446;-71
2022/07/30 15:20:31;;;;;;;;;;;;;;;;;;5044300;28;1277;-71
2022/07/30 15:22:56;;;;;;;;;;;;;;;;;;5063609;28;858;-71
2022/07/30 15:25:22;;;;;;;;;;;;;;;;;;5055312;28;1965;-71
2022/07/30 15:27:47;;;;;;;;;;;;;;;;;;5062243;28;1378;-71
2022/07/30 15:30:12;;;;;;;;;;;;;;;;;;5062477;28;1341;-71
2022/07/30 15:32:38;;;;;;;;;;;;;;;;;;5049784;28;1295;-71
2022/07/30 15:35:04;;;;;;;;;;;;;;;;;;5073233;28;1349;-71
2022/07/30 15:37:29;;;;;;;;;;;;;;;;;;5045619;28;1406;-71
2022/07/30 15:39:54;;;;;;;;;;;;;;;;;;5041932;28;898;-71
2022/07/30 15:42:19;;;;;;;;;;;;;;;;;;5061332;28;1346;-71
2022/07/30 15:44:44;;;;;;;;;;;;;;;;;;5055894;28;2036;-71
2022/07/30 15:47:10;;;;;;;;;;;;;;;;;;5059932;28;1882;-71
2022/07/30 15:49:35;;;;;;;;;;;;;;;;;;5062497;28;996;-71
2022/07/30 15:52:00;;;;;;;;;;;;;;;;;;5053090;28;1503;-71
2022/07/30 15:54:26;;;;;;;;;;;;;;;;;;5060125;28;1296;-71
2022/07/30 15:56:52;;;;;;;;;;;;;;;;;;5052076;28;1936;-71
2022/07/30 15:59:18;;;;;;;;;;;;;;;;;;5045482;28;1565;-70
2022/07/30 16:01:43;;;;;;;;;;;;;;;;;;5042850;28;1551;-69
2022/07/30 16:04:08;;;;;;;;;;;;;;;;;;5052768;28;1484;-72
2022/07/30 16:06:34;;;;;;;;;;;;;;;;;;5042117;28;1906;-72
2022/07/30 16:08:59;;;;;;;;;;;;;;;;;;5048604;28;1504;-72
2022/07/30 16:11:25;;;;;;;;;;;;;;;;;;5060317;28;1223;-74
2022/07/30 16:13:50;;;;;;;;;;;;;;;;;;5061041;28;921;-73
2022/07/30 16:16:15;;;;;;;;;;;;;;;;;;5057371;28;1309;-73
2022/07/30 16:18:40;;;;;;;;;;;;;;;;;;5061427;28;1108;-73
2022/07/30 16:21:06;;;;;;;;;;;;;;;;;;5054119;28;1417;-73
2022/07/30 16:23:31;;;;;;;;;;;;;;;;;;5061875;28;1148;-73
2022/07/30 16:25:56;;;;;;;;;;;;;;;;;;5059614;28;1898;-73
2022/07/30 16:28:21;;;;;;;;;;;;;;;;;;5059869;28;1259;-73
2022/07/30 16:30:47;;;;;;;;;;;;;;;;;;5059873;28;1017;-73
2022/07/30 16:33:12;;;;;;;;;;;;;;;;;;5057452;28;1394;-72
2022/07/30 16:35:37;;;;;;;;;;;;;;;;;;5059005;28;1579;-73
2022/07/30 16:38:02;;;;;;;;;;;;;;;;;;5049565;28;1483;-73
2022/07/30 16:40:28;;;;;;;;;;;;;;;;;;5047528;28;1499;-73
2022/07/30 16:42:53;;;;;;;;;;;;;;;;;;5052397;28;1398;-73
2022/07/30 16:45:18;;;;;;;;;;;;;;;;;;5047057;28;1879;-74
2022/07/30 16:47:44;;;;;;;;;;;;;;;;;;5051242;28;1275;-70
2022/07/30 16:50:09;;;;;;;;;;;;;;;;;;5047803;28;1239;-72
2022/07/30 16:52:34;;;;;;;;;;;;;;;;;;5050278;28;1256;-72
2022/07/30 16:54:59;;;;;;;;;;;;;;;;;;5050019;28;1415;-72
2022/07/30 16:57:25;;;;;;;;;;;;;;;;;;5050908;28;1326;-72
2022/07/30 16:59:50;;;;;;;;;;;;;;;;;;5050584;28;1255;-72
2022/07/30 17:02:15;;;;;;;;;;;;;;;;;;5045969;28;1472;-72